Farmington ASC

Dec. 14, 2019, 5 p.m.

  • imperial
Air Temperature RH Dewpoint Wind Chill Heat Index Wind Speed Wind Direction Precipitation Solar Radiation Soil Temperature
Date Time Max Mean Mean Total Total
US/Mountain F % F F F MPH MPH MPH deg. deg. in. MJ/m^2 F
2019-12-13 17:00 40.48 68.79 31.03 38.73 40.48 3.13 4.03 3.42 7.9 117.8 0.0 0.0 41.43
2019-12-13 17:05 40.24 69.1 30.92 40.24 40.24 2.42 3.85 3.31 7.4 111.2 0.0 0.0 41.4
2019-12-13 17:10 39.87 69.1 30.56 39.87 39.87 1.7 2.77 2.1 15.6 76.1 0.0 0.0 41.36
2019-12-13 17:15 39.74 69.0 30.4 39.74 39.74 1.16 2.06 1.57 11.1 82.7 0.0 0.0 41.31
2019-12-13 17:20 39.63 69.51 30.48 39.63 39.63 1.7 2.06 1.41 4.1 70.2 0.0 0.0 41.25
2019-12-13 17:25 39.69 68.42 30.14 39.69 39.69 2.24 2.24 2.04 4.1 66.4 0.0 0.0 41.22
2019-12-13 17:30 39.69 69.17 30.41 39.69 39.69 1.52 2.06 1.72 4.3 74.1 0.0 0.0 41.18
2019-12-13 17:35 39.65 69.56 30.51 39.65 39.65 2.24 2.77 1.74 8.2 81.6 0.0 0.0 41.13
2019-12-13 17:40 39.4 70.34 30.55 39.4 39.4 1.7 2.24 1.88 10.1 72.3 0.0 0.0 41.07
2019-12-13 17:45 39.4 70.14 30.48 39.4 39.4 1.88 2.24 1.92 12.4 42.4 0.0 0.0 41.05
2019-12-13 17:50 39.47 68.3 29.89 39.47 39.47 1.16 2.06 1.43 23.2 59.0 0.0 0.0 41.0
2019-12-13 17:55 39.52 69.5 30.37 39.52 39.52 1.34 1.52 0.76 26.7 89.7 0.0 0.0 40.96
2019-12-13 18:00 39.09 69.77 30.05 36.95 39.09 3.31 3.49 2.26 33.9 158.6 0.0 0.0 40.91
2019-12-13 18:05 38.61 68.48 29.13 38.61 38.61 2.24 3.31 2.66 18.1 132.9 0.0 0.0 40.87
2019-12-13 18:10 39.22 68.1 29.58 39.22 39.22 2.24 2.24 0.78 14.0 117.3 0.0 0.0 40.84
2019-12-13 18:15 38.48 74.12 30.95 38.48 38.48 2.06 2.77 2.48 8.1 142.1 0.0 0.0 40.8
2019-12-13 18:20 38.37 74.02 30.82 38.37 38.37 1.7 3.49 2.73 16.5 154.5 0.0 0.0 40.77
2019-12-13 18:25 38.3 72.73 30.31 38.3 38.3 2.06 2.42 1.54 15.7 97.2 0.0 0.0 40.71
2019-12-13 18:30 38.73 71.95 30.46 38.73 38.73 2.77 4.38 3.29 11.1 120.1 0.0 0.0 40.68
2019-12-13 18:35 38.61 74.4 31.17 36.4 38.61 3.31 3.67 3.11 11.8 118.7 0.0 0.0 40.62
2019-12-13 18:40 38.17 73.17 30.34 34.82 38.17 4.38 4.38 3.78 5.1 120.8 0.0 0.0 40.59
2019-12-13 18:45 38.3 73.14 30.45 38.3 38.3 2.24 4.38 2.59 20.7 107.9 0.0 0.0 40.57
2019-12-13 18:50 38.48 71.95 30.22 35.34 38.48 4.21 4.56 3.67 9.8 122.6 0.0 0.0 40.53
2019-12-13 18:55 38.55 71.47 30.13 38.55 38.55 2.59 4.74 3.83 13.3 124.1 0.0 0.0 40.5
2019-12-13 19:00 38.48 70.76 29.81 35.51 38.48 4.03 4.21 3.13 13.4 113.6 0.0 0.0 40.46
2019-12-13 19:05 38.48 71.1 29.93 35.02 38.48 4.56 5.1 4.61 6.7 117.8 0.0 0.0 40.42
2019-12-13 19:10 38.43 71.1 29.88 34.66 38.43 4.92 5.64 4.9 8.1 116.6 0.0 0.0 40.41
2019-12-13 19:15 38.17 70.76 29.52 38.17 38.17 2.59 4.38 3.13 12.9 113.1 0.0 0.0 40.37
2019-12-13 19:20 37.56 71.64 29.23 37.56 37.56 2.06 4.56 3.31 15.0 110.8 0.0 0.0 40.33
2019-12-13 19:25 36.95 71.95 28.75 36.95 36.95 1.88 2.42 1.81 18.5 82.9 0.0 0.0 40.3
2019-12-13 19:30 36.34 73.04 28.53 36.34 36.34 2.24 3.13 2.33 14.3 105.9 0.0 0.0 40.24
2019-12-13 19:35 35.98 74.09 28.53 33.19 35.98 3.49 3.49 2.39 17.3 97.5 0.0 0.0 40.19
2019-12-13 19:40 35.8 74.74 28.57 32.23 35.8 4.21 5.28 4.52 5.0 113.5 0.0 0.0 40.15
2019-12-13 19:45 35.92 73.83 28.39 35.92 35.92 1.88 4.21 2.71 20.1 98.7 0.0 0.0 40.08
2019-12-13 19:50 35.62 74.04 28.16 35.62 35.62 1.7 2.24 1.9 16.4 88.7 0.0 0.0 40.05
2019-12-13 19:55 35.94 72.92 28.1 35.94 35.94 0.98 2.24 1.61 10.9 95.5 0.0 0.0 39.97
2019-12-13 20:00 36.0 73.33 28.29 36.0 36.0 1.34 2.95 1.59 14.1 67.2 0.0 0.0 39.94
2019-12-13 20:05 36.25 72.21 28.16 36.25 36.25 1.52 1.88 1.36 9.3 79.0 0.0 0.0 39.87
2019-12-13 20:10 36.3 71.56 27.99 36.3 36.3 1.88 2.24 1.7 8.1 54.7 0.0 0.0 39.85
2019-12-13 20:15 37.29 70.17 28.46 37.29 37.29 2.42 3.85 2.73 17.1 37.7 0.0 0.0 39.81
2019-12-13 20:20 38.03 70.4 29.25 38.03 38.03 2.59 3.85 2.62 19.0 46.5 0.0 0.0 39.76
2019-12-13 20:25 38.08 70.95 29.5 38.08 38.08 1.34 2.42 1.41 17.8 77.9 0.0 0.0 39.7
2019-12-13 20:30 38.03 72.45 29.96 38.03 38.03 1.7 2.59 1.54 19.8 93.4 0.0 0.0 39.67
2019-12-13 20:35 37.83 72.89 29.92 37.83 37.83 0.81 1.88 1.19 18.3 87.7 0.0 0.0 39.65
2019-12-13 20:40 37.47 73.23 29.68 37.47 37.47 1.34 1.52 1.23 8.1 69.7 0.0 0.0 39.61
2019-12-13 20:45 37.29 72.89 29.4 37.29 37.29 1.7 1.7 1.43 14.3 86.6 0.0 0.0 39.6
2019-12-13 20:50 37.35 72.21 29.22 37.35 37.35 1.34 1.7 1.34 7.4 88.3 0.0 0.0 39.56
2019-12-13 20:55 37.04 72.35 28.97 37.04 37.04 1.16 2.24 1.48 8.3 85.1 0.0 0.0 39.52
2019-12-13 21:00 36.91 73.47 29.22 36.91 36.91 1.7 1.7 1.43 7.0 75.4 0.0 0.0 39.52
2019-12-13 21:05 36.61 73.98 29.1 36.61 36.61 1.34 2.06 1.5 8.9 92.3 0.0 0.0 39.49
2019-12-13 21:10 36.48 75.03 29.32 36.48 36.48 1.7 1.7 1.36 10.9 80.1 0.0 0.0 39.45
2019-12-13 21:15 36.25 74.93 29.06 36.25 36.25 1.7 2.06 1.81 2.6 68.5 0.0 0.0 39.42
2019-12-13 21:20 36.55 73.6 28.92 36.55 36.55 1.7 2.59 2.13 4.9 66.6 0.0 0.0 39.42
2019-12-13 21:25 36.48 72.55 28.5 36.48 36.48 1.88 2.06 1.54 7.9 86.3 0.0 0.0 39.38
2019-12-13 21:30 36.48 72.65 28.53 36.48 36.48 1.52 2.24 1.68 10.8 92.2 0.0 0.0 39.36
2019-12-13 21:35 36.3 72.38 28.27 36.3 36.3 2.06 2.06 1.66 8.7 80.4 0.0 0.0 39.36
2019-12-13 21:40 36.81 69.38 27.72 36.81 36.81 2.95 3.31 2.55 13.3 100.5 0.0 0.0 39.33
2019-12-13 21:45 37.22 68.57 27.83 37.22 37.22 2.24 3.85 3.0 17.9 105.9 0.0 0.0 39.29
2019-12-13 21:50 37.72 66.63 27.62 37.72 37.72 1.88 2.95 2.1 22.9 98.2 0.0 0.0 39.29
2019-12-13 21:55 37.96 66.9 27.94 34.91 37.96 4.03 4.03 2.71 13.7 109.8 0.0 0.0 39.25
2019-12-13 22:00 38.03 66.52 27.87 38.03 38.03 2.95 4.74 3.36 13.9 106.3 0.0 0.0 39.22
2019-12-13 22:05 38.14 64.45 27.2 38.14 38.14 2.42 3.49 2.64 19.8 98.8 0.0 0.0 39.22
2019-12-13 22:10 37.65 69.38 28.53 33.9 37.65 4.74 5.46 4.81 7.2 127.8 0.0 0.0 39.18
2019-12-13 22:15 37.29 69.08 28.08 32.9 37.29 5.46 5.64 5.15 4.1 126.6 0.0 0.0 39.18
2019-12-13 22:20 37.35 68.4 27.89 32.57 37.35 6.0 6.53 5.84 5.3 122.1 0.0 0.0 39.15
2019-12-13 22:25 37.4 68.09 27.83 32.39 37.4 6.35 6.53 6.08 5.6 127.6 0.0 0.0 39.11
2019-12-13 22:30 37.83 66.59 27.71 32.91 37.83 6.35 6.89 6.02 6.7 131.0 0.0 0.0 39.11
2019-12-13 22:35 38.19 67.24 28.29 38.19 38.19 1.7 6.17 4.34 10.3 118.7 0.0 0.0 39.07
2019-12-13 22:40 37.71 67.37 27.87 37.71 37.71 1.7 1.88 1.59 13.2 74.9 0.0 0.0 39.06
2019-12-13 22:45 37.4 68.15 27.86 37.4 37.4 2.42 2.77 1.81 11.4 102.0 0.0 0.0 39.04
2019-12-13 22:50 37.35 68.49 27.93 37.35 37.35 1.7 3.49 2.15 15.5 106.1 0.0 0.0 39.0
2019-12-13 22:55 37.33 68.42 27.88 37.33 37.33 1.88 2.77 2.15 21.0 109.8 0.0 0.0 38.98
2019-12-13 23:00 37.71 67.1 27.77 35.17 37.71 3.49 3.49 2.55 25.7 100.5 0.0 0.0 38.97
2019-12-13 23:05 37.83 67.37 27.99 37.83 37.83 2.06 3.67 2.51 18.7 94.4 0.0 0.0 38.95
2019-12-13 23:10 38.01 68.22 28.47 38.01 38.01 0.81 2.42 1.68 14.9 84.6 0.0 0.0 38.93
2019-12-13 23:15 37.71 68.05 28.11 37.71 37.71 1.52 1.88 1.43 22.4 67.1 0.0 0.0 38.89
2019-12-13 23:20 37.78 68.02 28.17 37.78 37.78 2.77 2.77 2.08 14.0 86.8 0.0 0.0 38.88
2019-12-13 23:25 37.58 68.73 28.23 37.58 37.58 1.16 2.42 1.66 18.2 86.7 0.0 0.0 38.86
2019-12-13 23:30 37.53 69.21 28.35 37.53 37.53 1.7 2.42 1.5 50.9 32.2 0.0 0.0 38.82
2019-12-13 23:35 37.47 69.31 28.34 37.47 37.47 1.34 3.31 1.95 24.2 51.6 0.0 0.0 38.82
2019-12-13 23:40 37.4 70.78 28.78 37.4 37.4 1.52 2.06 1.54 20.3 65.6 0.0 0.0 38.8
2019-12-13 23:45 36.86 71.73 28.59 36.86 36.86 1.88 2.24 1.59 16.2 48.9 0.0 0.0 38.79
2019-12-13 23:50 36.99 71.93 28.78 36.99 36.99 2.77 3.49 1.92 27.6 55.0 0.0 0.0 38.75
2019-12-13 23:55 37.53 69.62 28.5 37.53 37.53 2.77 3.67 2.95 18.1 97.4 0.0 0.0 38.77
2019-12-14 00:00 38.21 67.41 28.36 34.71 38.21 4.56 4.74 3.4 16.3 105.7 0.0 0.0 38.73
2019-12-14 00:05 38.7 66.8 28.61 35.59 38.7 4.21 5.64 2.59 25.7 86.8 0.0 0.0 38.71
2019-12-14 00:10 38.7 66.15 28.37 36.11 38.7 3.67 5.64 3.98 17.2 108.0 0.0 0.0 38.7
2019-12-14 00:15 39.0 66.35 28.73 39.0 39.0 2.24 5.1 2.24 28.6 93.3 0.0 0.0 38.7
2019-12-14 00:20 38.75 66.72 28.63 38.75 38.75 1.52 3.13 2.33 13.7 92.0 0.0 0.0 38.68
2019-12-14 00:25 38.75 67.26 28.83 36.18 38.75 3.67 4.03 2.33 28.1 81.0 0.0 0.0 38.68
2019-12-14 00:30 38.37 67.43 28.53 35.93 38.37 3.49 4.21 2.44 28.5 93.1 0.0 0.0 38.66
2019-12-14 00:35 38.44 67.33 28.56 38.44 38.44 2.95 4.03 2.89 23.2 53.0 0.0 0.0 38.66
2019-12-14 00:40 38.07 68.15 28.49 35.21 38.07 3.85 4.21 2.84 21.3 49.5 0.0 0.0 38.66
2019-12-14 00:45 38.19 68.28 28.66 38.19 38.19 2.06 4.92 3.13 22.2 49.6 0.0 0.0 38.64
2019-12-14 00:50 38.01 69.47 28.91 34.97 38.01 4.03 6.17 3.44 20.3 32.2 0.0 0.0 38.62
2019-12-14 00:55 37.83 69.3 28.68 37.83 37.83 2.77 4.38 3.44 22.3 49.5 0.0 0.0 38.62
2019-12-14 01:00 37.94 69.81 28.96 37.94 37.94 2.95 6.71 3.42 36.7 49.8 0.0 0.0 38.62
2019-12-14 01:05 38.12 69.84 29.14 38.12 38.12 2.24 5.28 3.56 26.1 42.6 0.0 0.0 38.62
2019-12-14 01:10 37.94 70.42 29.17 37.94 37.94 2.24 5.64 3.33 28.3 34.4 0.0 0.0 38.61
2019-12-14 01:15 37.94 69.7 28.92 35.06 37.94 3.85 6.17 3.47 24.4 38.7 0.0 0.0 38.59
2019-12-14 01:20 37.94 69.46 28.84 37.94 37.94 2.95 4.03 2.84 37.7 51.2 0.0 0.0 38.59
2019-12-14 01:25 37.94 68.58 28.53 37.94 37.94 2.59 5.82 2.98 53.8 55.4 0.0 0.0 38.59
2019-12-14 01:30 38.07 68.1 28.48 38.07 38.07 2.42 5.46 2.8 57.0 55.3 0.0 0.0 38.59
2019-12-14 01:35 37.99 68.92 28.7 35.5 37.99 3.49 4.74 3.15 34.0 81.1 0.0 0.0 38.59
2019-12-14 01:40 37.99 68.82 28.66 35.31 37.99 3.67 4.03 2.84 36.9 56.3 0.0 0.0 38.57
2019-12-14 01:45 37.76 68.58 28.35 37.76 37.76 1.7 4.38 2.82 49.0 73.1 0.0 0.0 38.55
2019-12-14 01:50 37.69 67.39 27.86 37.69 37.69 2.59 6.0 3.33 48.1 52.2 0.0 0.0 38.55
2019-12-14 01:55 38.07 66.1 27.75 35.58 38.07 3.49 5.1 3.36 36.2 52.5 0.0 0.0 38.55
2019-12-14 02:00 38.48 64.53 27.56 36.06 38.48 3.49 5.82 3.4 41.0 79.7 0.0 0.0 38.55
2019-12-14 02:05 38.25 64.87 27.46 35.99 38.25 3.31 4.92 2.93 49.9 56.0 0.0 0.0 38.53
2019-12-14 02:10 38.43 64.57 27.52 35.8 38.43 3.67 5.46 3.67 20.8 45.9 0.0 0.0 38.52
2019-12-14 02:15 38.37 64.97 27.62 36.13 38.37 3.31 4.92 3.47 29.2 50.3 0.0 0.0 38.52
2019-12-14 02:20 37.99 65.99 27.64 35.91 37.99 3.13 5.82 3.11 35.7 61.3 0.0 0.0 38.5
2019-12-14 02:25 37.81 65.72 27.37 34.4 37.81 4.38 5.64 3.44 29.8 62.0 0.0 0.0 38.48
2019-12-14 02:30 37.81 66.3 27.58 37.81 37.81 2.42 5.64 3.29 42.7 63.8 0.0 0.0 38.48
2019-12-14 02:35 37.69 66.13 27.4 33.51 37.69 5.28 5.46 2.98 44.3 56.2 0.0 0.0 38.48
2019-12-14 02:40 37.76 66.68 27.67 37.76 37.76 2.95 4.38 3.11 39.6 49.1 0.0 0.0 38.44
2019-12-14 02:45 37.27 67.32 27.44 37.27 37.27 2.59 5.46 3.2 46.9 69.6 0.0 0.0 38.44
2019-12-14 02:50 37.2 67.8 27.54 37.2 37.2 1.88 5.64 3.33 43.4 82.2 0.0 0.0 38.41
2019-12-14 02:55 37.02 68.69 27.69 37.02 37.02 2.59 4.56 2.89 44.4 87.5 0.0 0.0 38.41
2019-12-14 03:00 37.09 69.06 27.89 37.09 37.09 2.59 4.56 2.91 35.3 99.7 0.0 0.0 38.37
2019-12-14 03:05 37.02 69.07 27.82 34.81 37.02 3.13 5.46 3.47 26.3 85.7 0.0 0.0 38.35
2019-12-14 03:10 36.97 69.2 27.81 36.97 36.97 2.24 5.28 3.53 39.5 91.1 0.0 0.0 38.34
2019-12-14 03:15 36.97 69.34 27.86 36.97 36.97 2.77 5.28 3.2 50.9 79.5 0.0 0.0 38.3
2019-12-14 03:20 37.09 69.2 27.94 34.27 37.09 3.67 4.74 2.89 27.6 93.5 0.0 0.0 38.3
2019-12-14 03:25 37.09 69.21 27.94 37.09 37.09 2.24 4.21 2.59 58.1 68.0 0.0 0.0 38.26
2019-12-14 03:30 37.09 69.45 28.02 37.09 37.09 2.06 3.67 2.19 44.5 60.4 0.0 0.0 38.26
2019-12-14 03:35 36.79 69.28 27.67 34.54 36.79 3.13 3.31 2.04 30.7 90.1 0.0 0.0 38.25
2019-12-14 03:40 36.43 70.61 27.79 36.43 36.43 1.7 2.42 1.77 35.1 59.4 0.0 0.0 38.21
2019-12-14 03:45 36.0 71.97 27.84 36.0 36.0 1.88 3.13 1.77 33.1 76.5 0.0 0.0 38.21
2019-12-14 03:50 36.43 70.47 27.74 32.16 36.43 5.1 6.0 3.2 39.4 75.3 0.0 0.0 38.17
2019-12-14 03:55 37.09 69.59 28.07 34.67 37.09 3.31 4.56 3.0 39.0 56.1 0.0 0.0 38.14
2019-12-14 04:00 37.29 69.25 28.14 35.11 37.29 3.13 4.74 2.77 37.3 71.7 0.0 0.0 38.14
2019-12-14 04:05 37.29 70.06 28.43 37.29 37.29 1.7 4.21 2.64 38.3 97.2 0.0 0.0 38.1
2019-12-14 04:10 37.29 69.32 28.17 37.29 37.29 2.77 4.56 2.84 21.5 102.4 0.0 0.0 38.1
2019-12-14 04:15 37.35 69.55 28.3 34.76 37.35 3.49 4.74 3.49 14.8 108.4 0.0 0.0 38.08
2019-12-14 04:20 37.22 70.78 28.61 33.1 37.22 5.1 6.17 3.8 29.3 112.3 0.0 0.0 38.07
2019-12-14 04:25 36.18 73.81 28.63 36.18 36.18 2.59 5.82 4.14 7.2 166.9 0.0 0.0 38.07
2019-12-14 04:30 35.94 74.76 28.71 35.94 35.94 1.34 3.13 2.44 20.0 137.9 0.0 0.0 38.03
2019-12-14 04:35 35.76 75.0 28.62 35.76 35.76 0.0 1.34 0.27 5.8 132.5 0.0 0.0 38.03
2019-12-14 04:40 35.64 75.14 28.54 35.64 35.64 2.42 2.77 1.81 22.6 356.2 0.0 0.0 37.99
2019-12-14 04:45 35.51 76.09 28.72 33.09 35.51 3.13 3.31 2.24 55.1 357.6 0.0 0.0 37.99
2019-12-14 04:50 35.87 75.41 28.85 35.87 35.87 1.88 2.77 1.79 39.1 84.2 0.0 0.0 37.96
2019-12-14 04:55 35.87 75.1 28.75 35.87 35.87 0.0 2.42 1.19 11.8 37.2 0.0 0.0 37.96
2019-12-14 05:00 36.07 75.34 29.02 36.07 36.07 1.7 3.13 1.34 45.5 121.1 0.0 0.0 37.96
2019-12-14 05:05 36.37 75.68 29.43 36.37 36.37 1.7 3.67 2.42 31.2 102.4 0.0 0.0 37.92
2019-12-14 05:10 36.25 75.41 29.22 36.25 36.25 2.24 2.42 1.32 77.0 80.0 0.0 0.0 37.92
2019-12-14 05:15 36.3 75.85 29.41 33.77 36.3 3.31 3.85 2.66 39.6 50.0 0.0 0.0 37.9
2019-12-14 05:20 36.3 75.61 29.34 36.3 36.3 2.06 4.74 2.93 44.5 56.9 0.0 0.0 37.9
2019-12-14 05:25 36.5 74.63 29.21 34.0 36.5 3.31 4.21 3.29 21.1 44.4 0.0 0.0 37.87
2019-12-14 05:30 36.81 74.01 29.3 33.76 36.81 3.85 6.17 3.87 32.8 57.7 0.0 0.0 37.87
2019-12-14 05:35 36.5 74.69 29.23 36.5 36.5 2.77 4.38 3.27 24.1 65.3 0.0 0.0 37.87
2019-12-14 05:40 36.43 75.24 29.34 36.43 36.43 2.95 5.28 3.11 33.0 46.5 0.0 0.0 37.83
2019-12-14 05:45 36.37 75.92 29.51 33.26 36.37 3.85 4.74 2.93 52.4 79.4 0.0 0.0 37.83
2019-12-14 05:50 36.25 76.33 29.52 32.93 36.25 4.03 4.38 3.09 22.6 93.6 0.0 0.0 37.81
2019-12-14 05:55 36.43 75.85 29.54 33.71 36.43 3.49 4.03 3.13 21.1 110.2 0.0 0.0 37.8
2019-12-14 06:00 36.5 76.06 29.67 36.5 36.5 1.88 2.95 2.01 27.7 77.5 0.0 0.0 37.8
2019-12-14 06:05 36.43 76.26 29.67 36.43 36.43 2.24 2.77 1.92 41.4 59.1 0.0 0.0 37.78
2019-12-14 06:10 36.43 76.43 29.72 36.43 36.43 1.52 4.38 2.48 45.3 78.2 0.0 0.0 37.76
2019-12-14 06:15 36.55 76.6 29.9 36.55 36.55 1.34 2.95 2.17 44.2 68.4 0.0 0.0 37.76
2019-12-14 06:20 36.68 76.12 29.87 36.68 36.68 2.77 4.21 2.71 28.0 86.3 0.0 0.0 37.76
2019-12-14 06:25 36.81 76.74 30.19 36.81 36.81 2.42 2.95 2.08 33.1 71.8 0.0 0.0 37.76
2019-12-14 06:30 36.61 77.62 30.28 33.91 36.61 3.49 5.1 2.64 42.2 87.4 0.0 0.0 37.74
2019-12-14 06:35 36.43 78.78 30.47 36.43 36.43 1.88 3.85 2.21 30.1 89.6 0.0 0.0 37.74
2019-12-14 06:40 36.5 78.81 30.55 36.5 36.5 2.95 4.03 2.59 24.3 104.7 0.0 0.0 37.72
2019-12-14 06:45 36.43 79.12 30.58 36.43 36.43 2.24 3.13 1.95 19.2 101.3 0.0 0.0 37.72
2019-12-14 06:50 36.18 79.46 30.44 36.18 36.18 1.52 2.42 1.79 12.6 94.6 0.0 0.0 37.72
2019-12-14 06:55 35.82 79.53 30.11 35.82 35.82 1.52 2.77 1.99 20.6 98.2 0.0 0.0 37.72
2019-12-14 07:00 35.2 80.3 29.75 35.2 35.2 1.7 2.24 1.92 15.5 83.1 0.0 0.0 37.72
2019-12-14 07:05 34.77 81.5 29.69 34.77 34.77 1.88 2.24 1.72 18.2 59.6 0.0 0.0 37.72
2019-12-14 07:10 34.34 81.9 29.39 34.34 34.34 1.34 1.88 1.61 13.7 76.8 0.0 0.001 37.69
2019-12-14 07:15 34.11 83.2 29.54 34.11 34.11 2.06 2.24 1.79 8.7 49.4 0.0 0.001 37.69
2019-12-14 07:20 33.62 83.8 29.24 33.62 33.62 1.52 2.06 1.5 22.1 68.1 0.0 0.002 37.65
2019-12-14 07:25 33.24 84.3 29.02 33.24 33.24 1.52 2.42 1.66 17.4 72.1 0.0 0.002 37.62
2019-12-14 07:30 33.06 85.0 29.05 33.06 33.06 2.06 2.42 1.83 18.0 78.5 0.0 0.003 37.58
2019-12-14 07:35 33.12 85.2 29.16 33.12 33.12 2.24 2.24 1.77 16.4 80.4 0.0 0.005 37.56
2019-12-14 07:40 33.13 85.1 29.15 33.13 33.13 1.88 2.06 1.63 8.2 79.8 0.0 0.007 37.49
2019-12-14 07:45 33.13 85.9 29.37 33.13 33.13 0.98 2.24 1.68 15.7 86.1 0.0 0.011 37.45
2019-12-14 07:50 33.93 85.0 29.89 33.93 33.93 1.7 2.06 1.7 20.7 103.7 0.0 0.013 37.42
2019-12-14 07:55 34.23 83.7 29.82 34.23 34.23 1.88 2.59 2.1 21.9 94.3 0.0 0.011 37.38
2019-12-14 08:00 34.18 83.7 29.76 34.18 34.18 1.34 2.24 1.83 43.6 348.8 0.0 0.015 37.35
2019-12-14 08:05 34.79 81.7 29.77 34.79 34.79 2.06 2.24 1.48 48.2 223.8 0.0 0.025 37.31
2019-12-14 08:10 36.19 78.52 30.16 36.19 36.19 1.34 2.24 1.81 22.3 124.3 0.0 0.029 37.29
2019-12-14 08:15 36.5 76.85 29.93 36.5 36.5 0.98 1.88 1.5 29.1 22.3 0.0 0.03 37.27
2019-12-14 08:20 37.36 75.93 30.47 37.36 37.36 1.7 1.88 1.28 39.0 82.9 0.0 0.032 37.26
2019-12-14 08:25 38.34 73.41 30.58 38.34 38.34 1.52 2.06 1.52 47.3 72.9 0.0 0.036 37.26
2019-12-14 08:30 40.05 69.15 30.75 37.85 40.05 3.49 3.67 2.15 22.2 128.5 0.0 0.049 37.26
2019-12-14 08:35 40.48 67.96 30.73 36.8 40.48 5.28 5.82 4.03 11.8 133.4 0.0 0.053 37.27
2019-12-14 08:40 41.22 66.19 30.79 38.36 41.22 4.38 5.46 4.21 11.5 130.8 0.0 0.067 37.29
2019-12-14 08:45 41.27 67.34 31.26 38.28 41.27 4.56 5.82 4.92 7.8 141.0 0.0 0.063 37.33
2019-12-14 08:50 40.53 68.12 30.84 37.42 40.53 4.56 5.82 4.88 7.6 133.0 0.0 0.031 37.36
2019-12-14 08:55 40.1 69.58 30.95 37.38 40.1 4.03 5.1 4.3 5.2 130.0 0.0 0.027 37.4
2019-12-14 09:00 42.12 64.74 31.1 39.12 42.12 4.74 4.92 4.16 7.9 133.2 0.0 0.078 37.47
2019-12-14 09:05 43.27 61.2 30.8 40.09 43.27 5.28 5.46 4.38 9.9 146.7 0.0 0.072 37.51
2019-12-14 09:10 44.44 60.65 31.68 44.44 44.44 2.95 5.28 3.8 13.6 159.8 0.0 0.09 37.56
2019-12-14 09:15 45.1 56.43 30.53 43.63 45.1 3.49 3.67 2.89 18.4 166.6 0.0 0.066 37.63
2019-12-14 09:20 46.0 53.02 29.83 46.0 46.0 2.59 4.74 3.11 15.6 182.3 0.0 0.099 37.71
2019-12-14 09:25 44.96 57.3 30.77 44.96 44.96 2.95 5.82 4.0 20.3 194.1 0.0 0.063 37.78
2019-12-14 09:30 45.07 55.36 30.02 42.84 45.07 4.38 4.92 2.62 14.3 234.9 0.0 0.092 37.87
2019-12-14 09:35 45.75 53.9 30.0 45.75 45.75 1.34 4.21 2.62 18.1 213.2 0.0 0.101 37.98
2019-12-14 09:40 45.88 56.04 31.08 44.21 45.88 3.85 4.38 3.49 16.2 231.3 0.0 0.113 38.07
2019-12-14 09:45 46.04 55.66 31.06 43.97 46.04 4.38 5.64 3.91 19.9 241.8 0.0 0.125 38.17
2019-12-14 09:50 45.61 58.14 31.74 45.61 45.61 2.06 5.64 3.74 19.6 245.7 0.0 0.076 38.28
2019-12-14 09:55 45.66 56.84 31.23 44.44 45.66 3.31 4.21 3.53 17.7 210.6 0.0 0.096 38.41
2019-12-14 10:00 46.27 57.55 32.11 45.14 46.27 3.31 5.1 3.56 19.2 213.0 0.0 0.102 38.55
2019-12-14 10:05 46.09 57.96 32.12 45.1 46.09 3.13 5.64 4.09 12.6 210.6 0.0 0.094 38.7
2019-12-14 10:10 47.25 55.41 32.08 45.93 47.25 3.67 5.64 3.78 12.9 201.1 0.0 0.124 38.82
2019-12-14 10:15 48.11 54.59 32.51 45.91 48.11 5.1 5.1 3.44 20.6 224.5 0.0 0.128 38.97
2019-12-14 10:20 47.25 56.87 32.72 46.41 47.25 3.13 7.07 4.97 13.1 229.0 0.0 0.12 39.09
2019-12-14 10:25 47.48 56.15 32.63 46.06 47.48 3.85 5.28 3.65 18.4 240.9 0.0 0.111 39.24
2019-12-14 10:30 48.15 54.71 32.6 46.3 48.15 4.56 6.35 4.23 18.1 223.9 0.0 0.107 39.42
2019-12-14 10:35 48.15 55.56 32.99 45.64 48.15 5.64 6.89 5.26 15.0 237.2 0.0 0.112 39.56
2019-12-14 10:40 48.56 54.4 32.85 46.78 48.56 4.56 6.35 4.52 21.1 276.5 0.0 0.144 39.72
2019-12-14 10:45 48.74 55.52 33.52 47.51 48.74 3.85 5.82 3.94 31.0 269.1 0.0 0.119 39.88
2019-12-14 10:50 48.33 55.83 33.28 46.63 48.33 4.38 5.46 4.21 20.2 272.4 0.0 0.068 40.05
2019-12-14 10:55 48.38 54.3 32.63 47.23 48.38 3.67 5.64 3.87 18.8 267.0 0.0 0.106 40.21
2019-12-14 11:00 48.63 54.88 33.13 46.75 48.63 4.74 5.82 4.12 14.7 293.2 0.0 0.123 40.37
2019-12-14 11:05 48.87 54.03 32.96 46.91 48.87 4.92 6.35 5.08 14.8 305.6 0.0 0.136 40.55
2019-12-14 11:10 48.81 54.13 32.96 48.03 48.81 3.31 6.0 3.91 25.1 292.4 0.0 0.106 40.69
2019-12-14 11:15 48.69 53.38 32.49 47.31 48.69 4.03 5.1 3.76 22.5 282.8 0.0 0.113 40.86
2019-12-14 11:20 48.13 55.66 33.01 45.93 48.13 5.1 6.0 3.0 37.1 307.2 0.0 0.062 41.0
2019-12-14 11:25 47.52 57.02 33.04 45.96 47.52 4.03 5.28 3.71 18.1 311.1 0.0 0.059 41.14
2019-12-14 11:30 47.89 55.39 32.67 46.13 47.89 4.38 4.74 3.22 25.0 287.9 0.0 0.075 41.27
2019-12-14 11:35 47.77 56.99 33.27 47.77 47.77 2.42 4.03 2.89 35.6 336.8 0.0 0.067 41.41
2019-12-14 11:40 47.59 56.03 32.67 46.63 47.59 3.31 4.56 3.29 17.2 318.6 0.0 0.059 41.52
2019-12-14 11:45 47.59 57.49 33.32 46.8 47.59 3.13 3.49 2.57 34.4 332.1 0.0 0.055 41.63
2019-12-14 11:50 47.71 55.63 32.61 46.19 47.71 4.03 4.21 3.04 12.8 302.7 0.0 0.058 41.72
2019-12-14 11:55 47.52 56.68 32.89 46.1 47.52 3.85 4.38 3.22 20.6 300.4 0.0 0.057 41.83
2019-12-14 12:00 47.89 55.59 32.76 47.15 47.89 3.13 4.21 2.37 26.4 280.1 0.0 0.063 41.9
2019-12-14 12:05 47.64 57.29 33.28 46.39 47.64 3.67 4.92 3.33 17.0 299.1 0.0 0.06 41.99
2019-12-14 12:10 47.46 57.12 33.04 46.03 47.46 3.85 4.56 3.8 19.8 289.4 0.0 0.051 42.06
2019-12-14 12:15 48.07 56.92 33.52 48.07 48.07 2.59 5.1 3.4 14.1 290.8 0.0 0.057 42.15
2019-12-14 12:20 47.95 55.86 32.94 46.74 47.95 3.67 4.21 3.09 22.1 266.7 0.0 0.071 42.22
2019-12-14 12:25 48.33 55.56 33.15 47.17 48.33 3.67 3.67 2.39 27.3 271.0 0.0 0.069 42.3
2019-12-14 12:30 48.25 56.03 33.3 47.24 48.25 3.49 3.85 3.31 26.1 293.4 0.0 0.067 42.39
2019-12-14 12:35 48.51 55.9 33.47 47.68 48.51 3.31 3.67 2.89 21.6 266.8 0.0 0.066 42.46
2019-12-14 12:40 48.69 55.52 33.47 47.73 48.69 3.49 5.46 3.51 16.6 262.1 0.0 0.066 42.55
2019-12-14 12:45 48.38 56.61 33.67 48.38 48.38 2.77 5.1 3.67 20.8 274.8 0.0 0.062 42.6
2019-12-14 12:50 48.38 56.48 33.61 46.46 48.38 4.74 5.46 4.25 13.8 309.4 0.0 0.055 42.67
2019-12-14 12:55 48.13 56.61 33.44 46.94 48.13 3.67 5.28 3.83 15.4 290.7 0.0 0.039 42.76
2019-12-14 13:00 47.71 56.95 33.2 45.92 47.71 4.38 4.74 3.65 29.4 334.3 0.0 0.025 42.84
2019-12-14 13:05 47.77 57.66 33.56 46.84 47.77 3.31 4.56 2.75 24.0 315.1 0.0 0.028 42.91
2019-12-14 13:10 48.07 57.43 33.75 48.07 48.07 2.59 3.85 2.68 29.4 348.9 0.0 0.053 42.96
2019-12-14 13:15 48.38 56.51 33.63 48.38 48.38 2.24 3.49 2.57 20.6 334.2 0.0 0.062 43.0
2019-12-14 13:20 48.13 56.61 33.44 46.66 48.13 4.03 4.92 3.49 31.1 315.6 0.0 0.056 43.05
2019-12-14 13:25 48.63 55.87 33.58 46.64 48.63 4.92 5.28 3.96 21.0 337.8 0.0 0.064 43.11
2019-12-14 13:30 49.42 54.92 33.89 46.96 49.42 6.0 7.43 4.63 22.9 326.6 0.0 0.072 43.14
2019-12-14 13:35 49.3 56.04 34.28 47.77 49.3 4.38 8.3 5.15 21.9 319.5 0.0 0.072 43.2
2019-12-14 13:40 49.37 54.1 33.46 47.85 49.37 4.38 5.82 4.47 24.6 323.3 0.0 0.066 43.25
2019-12-14 13:45 49.48 54.47 33.73 46.76 49.48 6.53 6.53 4.03 21.6 300.5 0.0 0.053 43.29
2019-12-14 13:50 49.12 54.27 33.31 46.99 49.12 5.28 6.89 4.74 24.8 311.8 0.0 0.049 43.36
2019-12-14 13:55 49.3 54.37 33.52 48.29 49.3 3.67 5.1 3.49 34.9 298.6 0.0 0.053 43.41
2019-12-14 14:00 49.55 53.62 33.41 48.72 49.55 3.49 5.64 3.8 19.1 303.2 0.0 0.066 43.45
2019-12-14 14:05 49.66 53.69 33.54 47.84 49.66 4.92 5.82 4.12 21.2 295.4 0.0 0.06 43.52
2019-12-14 14:10 49.96 54.27 34.09 48.92 49.96 3.85 4.56 3.69 18.4 267.4 0.0 0.063 43.57
2019-12-14 14:15 50.16 53.38 33.86 50.16 50.16 2.59 4.03 3.51 22.0 269.4 0.0 0.072 43.63
2019-12-14 14:20 50.27 54.27 34.38 50.27 50.27 2.77 3.31 2.48 20.0 268.8 0.0 0.051 43.7
2019-12-14 14:25 49.86 54.91 34.29 49.86 49.86 2.77 5.28 3.6 22.0 272.6 0.0 0.04 43.75
2019-12-14 14:30 50.04 54.03 34.05 50.04 50.04 1.88 4.21 2.57 18.3 288.5 0.0 0.047 43.81
2019-12-14 14:35 49.96 53.96 33.95 49.05 49.96 3.67 3.67 2.51 17.8 285.5 0.0 0.047 43.86
2019-12-14 14:40 49.55 55.86 34.43 48.87 49.55 3.31 4.21 3.18 14.1 286.9 0.0 0.022 43.92
2019-12-14 14:45 49.3 59.33 35.71 48.58 49.3 3.31 4.74 3.71 11.2 283.5 0.0 0.013 43.95
2019-12-14 14:50 48.99 60.11 35.75 48.99 48.99 2.95 6.17 4.0 10.8 253.3 0.0 0.056 43.97
2019-12-14 14:55 49.3 60.04 36.01 49.3 49.3 2.59 2.77 2.26 11.5 256.8 0.0 0.045 44.01
2019-12-14 15:00 49.96 57.09 35.37 49.96 49.96 1.7 2.42 1.92 17.0 272.4 0.0 0.039 44.02
2019-12-14 15:05 49.55 62.56 37.29 49.55 49.55 2.59 3.49 1.59 12.7 223.5 0.0 0.027 44.06
2019-12-14 15:10 49.42 59.64 35.96 49.42 49.42 2.42 3.13 2.68 34.6 197.1 0.0 0.043 44.08
2019-12-14 15:15 50.41 61.07 37.5 50.41 50.41 2.77 4.21 2.98 12.4 230.7 0.0 0.068 44.08
2019-12-14 15:20 49.87 57.95 35.66 49.87 49.87 2.77 3.67 2.98 13.0 232.2 0.0 0.039 44.08
2019-12-14 15:25 49.5 62.98 37.41 48.66 49.5 3.49 4.38 3.47 20.4 218.6 0.0 0.024 44.1
2019-12-14 15:30 49.19 62.54 36.95 49.19 49.19 2.95 3.85 3.18 13.1 242.4 0.0 0.022 44.1
2019-12-14 15:35 49.26 63.49 37.4 48.25 49.26 3.67 4.56 3.58 10.4 226.2 0.0 0.04 44.1
2019-12-14 15:40 49.57 63.49 37.69 47.42 49.57 5.46 5.64 4.74 8.9 212.5 0.0 0.043 44.08
2019-12-14 15:45 49.26 65.46 38.18 47.6 49.26 4.56 5.82 4.85 9.8 210.7 0.0 0.027 44.1
2019-12-14 15:50 49.57 62.23 37.18 47.85 49.57 4.74 6.71 5.1 8.1 217.2 0.0 0.052 44.1
2019-12-14 15:55 49.8 60.87 36.84 47.23 49.8 6.35 7.25 5.41 8.0 220.7 0.0 0.041 44.1
2019-12-14 16:00 49.93 60.8 36.93 47.65 49.93 5.82 7.25 6.17 9.7 217.7 0.0 0.052 44.1
2019-12-14 16:05 50.29 59.17 36.58 50.29 50.29 6.89 7.61 5.84 9.0 218.0 0.0 0.056 44.06
2019-12-14 16:10 50.41 60.87 37.41 50.41 50.41 6.53 9.57 6.8 13.2 221.2 0.0 0.047 44.06
2019-12-14 16:15 50.05 63.28 38.06 50.05 50.05 8.48 8.68 6.85 11.1 222.3 0.0 0.034 44.06
2019-12-14 16:20 49.98 62.64 37.74 47.19 49.98 6.89 9.73 7.4 11.6 241.7 0.0 0.033 44.02
2019-12-14 16:25 49.37 63.04 37.32 46.38 49.37 7.07 10.09 7.61 10.7 257.7 0.0 0.023 44.02
2019-12-14 16:30 48.51 63.86 36.83 45.17 48.51 7.43 8.48 6.8 8.5 259.1 0.0 0.013 43.99
2019-12-14 16:35 47.95 65.39 36.9 45.4 47.95 5.64 7.61 6.11 9.2 259.3 0.0 0.01 43.95
2019-12-14 16:40 47.89 64.88 36.65 44.77 47.89 6.71 9.04 6.87 8.2 255.7 0.0 0.01 43.92
2019-12-14 16:45 47.53 65.12 36.4 43.99 47.53 7.43 10.45 8.01 7.7 252.1 0.0 0.006 43.9
2019-12-14 16:50 47.3 66.38 36.66 43.88 47.3 7.07 8.3 6.89 7.7 251.7 0.0 0.004 43.86
2019-12-14 16:55 46.45 68.09 36.5 43.63 46.45 5.64 7.07 6.04 9.7 250.7 0.0 0.002 43.81
2019-12-14 17:00 45.84 69.41 36.4 44.48 45.84 3.49 6.0 4.65 17.6 264.0 0.0 0.001 43.75

Data is courtesy of the NM Climate Center. DO NOT USE IN LEGAL PROCEEDINGS.